sensor_id;sensor_type;location;lat;lon;timestamp;pressure;altitude;pressure_sealevel;temperature;humidity
6204;BME280;3135;42.602;23.468;2023-04-28T00:00:44;92800.81;;;4.56;79.00
6204;BME280;3135;42.602;23.468;2023-04-28T00:03:11;92798.94;;;4.57;79.39
6204;BME280;3135;42.602;23.468;2023-04-28T00:05:37;92807.13;;;4.55;78.66
6204;BME280;3135;42.602;23.468;2023-04-28T00:08:02;92795.00;;;4.32;78.88
6204;BME280;3135;42.602;23.468;2023-04-28T00:10:29;92802.00;;;4.44;79.36
6204;BME280;3135;42.602;23.468;2023-04-28T00:12:55;92797.41;;;4.34;79.39
6204;BME280;3135;42.602;23.468;2023-04-28T00:15:20;92812.28;;;4.40;80.48
6204;BME280;3135;42.602;23.468;2023-04-28T00:17:46;92815.28;;;4.49;79.41
6204;BME280;3135;42.602;23.468;2023-04-28T00:20:11;92817.03;;;4.38;79.25
6204;BME280;3135;42.602;23.468;2023-04-28T00:22:37;92808.19;;;4.27;78.69
6204;BME280;3135;42.602;23.468;2023-04-28T00:25:03;92796.91;;;4.37;80.42
6204;BME280;3135;42.602;23.468;2023-04-28T00:27:29;92789.94;;;4.58;81.12
6204;BME280;3135;42.602;23.468;2023-04-28T00:29:54;92802.78;;;4.44;78.13
6204;BME280;3135;42.602;23.468;2023-04-28T00:32:20;92807.34;;;4.49;78.89
6204;BME280;3135;42.602;23.468;2023-04-28T00:34:45;92811.84;;;4.48;78.83
6204;BME280;3135;42.602;23.468;2023-04-28T00:37:11;92811.09;;;4.53;78.27
6204;BME280;3135;42.602;23.468;2023-04-28T00:39:36;92812.97;;;4.30;79.90
6204;BME280;3135;42.602;23.468;2023-04-28T00:42:02;92805.59;;;4.05;79.13
6204;BME280;3135;42.602;23.468;2023-04-28T00:44:28;92808.78;;;4.07;80.03
6204;BME280;3135;42.602;23.468;2023-04-28T00:46:54;92816.97;;;4.06;81.15
6204;BME280;3135;42.602;23.468;2023-04-28T00:49:20;92800.41;;;3.67;81.81
6204;BME280;3135;42.602;23.468;2023-04-28T00:51:45;92795.72;;;3.74;81.11
6204;BME280;3135;42.602;23.468;2023-04-28T00:54:14;92816.34;;;3.72;82.72
6204;BME280;3135;42.602;23.468;2023-04-28T00:56:40;92813.38;;;3.46;82.21
6204;BME280;3135;42.602;23.468;2023-04-28T00:59:05;92814.16;;;3.47;82.71
6204;BME280;3135;42.602;23.468;2023-04-28T01:01:31;92826.59;;;3.68;83.29
6204;BME280;3135;42.602;23.468;2023-04-28T01:03:57;92813.59;;;3.67;83.51
6204;BME280;3135;42.602;23.468;2023-04-28T01:06:23;92819.94;;;3.66;84.26
6204;BME280;3135;42.602;23.468;2023-04-28T01:08:49;92830.38;;;3.55;83.94
6204;BME280;3135;42.602;23.468;2023-04-28T01:11:17;92831.88;;;3.68;83.56
6204;BME280;3135;42.602;23.468;2023-04-28T01:13:43;92830.78;;;3.64;83.05
6204;BME280;3135;42.602;23.468;2023-04-28T01:16:08;92824.91;;;3.40;83.82
6204;BME280;3135;42.602;23.468;2023-04-28T01:18:34;92836.47;;;3.34;83.67
6204;BME280;3135;42.602;23.468;2023-04-28T01:20:59;92820.47;;;3.24;84.19
6204;BME280;3135;42.602;23.468;2023-04-28T01:23:25;92819.97;;;3.27;84.55
6204;BME280;3135;42.602;23.468;2023-04-28T01:25:50;92820.31;;;3.30;87.60
6204;BME280;3135;42.602;23.468;2023-04-28T01:28:16;92836.94;;;3.31;86.66
6204;BME280;3135;42.602;23.468;2023-04-28T01:30:41;92823.53;;;3.16;84.74
6204;BME280;3135;42.602;23.468;2023-04-28T01:33:07;92829.34;;;3.18;86.75
6204;BME280;3135;42.602;23.468;2023-04-28T01:35:32;92832.66;;;3.08;84.99
6204;BME280;3135;42.602;23.468;2023-04-28T01:37:58;92824.00;;;2.96;86.36
6204;BME280;3135;42.602;23.468;2023-04-28T01:40:23;92832.13;;;2.89;86.01
6204;BME280;3135;42.602;23.468;2023-04-28T01:42:49;92824.25;;;2.77;84.89
6204;BME280;3135;42.602;23.468;2023-04-28T01:45:15;92825.31;;;2.93;85.34
6204;BME280;3135;42.602;23.468;2023-04-28T01:47:40;92833.31;;;2.98;86.15
6204;BME280;3135;42.602;23.468;2023-04-28T01:50:06;92828.75;;;2.94;84.96
6204;BME280;3135;42.602;23.468;2023-04-28T01:52:31;92838.44;;;2.88;85.17
6204;BME280;3135;42.602;23.468;2023-04-28T01:54:57;92836.75;;;2.82;85.35
6204;BME280;3135;42.602;23.468;2023-04-28T01:57:22;92840.50;;;2.86;85.06
6204;BME280;3135;42.602;23.468;2023-04-28T01:59:48;92823.06;;;2.85;86.22
6204;BME280;3135;42.602;23.468;2023-04-28T02:02:13;92816.13;;;2.79;86.19
6204;BME280;3135;42.602;23.468;2023-04-28T02:04:38;92826.59;;;2.91;86.04
6204;BME280;3135;42.602;23.468;2023-04-28T02:07:05;92823.97;;;2.74;85.11
6204;BME280;3135;42.602;23.468;2023-04-28T02:09:31;92813.88;;;2.71;84.13
6204;BME280;3135;42.602;23.468;2023-04-28T02:11:57;92817.66;;;2.75;83.83
6204;BME280;3135;42.602;23.468;2023-04-28T02:14:24;92833.63;;;2.85;84.38
6204;BME280;3135;42.602;23.468;2023-04-28T02:16:50;92833.63;;;2.85;87.00
6204;BME280;3135;42.602;23.468;2023-04-28T02:19:15;92833.72;;;2.73;84.54
6204;BME280;3135;42.602;23.468;2023-04-28T02:21:41;92837.63;;;2.71;84.38
6204;BME280;3135;42.602;23.468;2023-04-28T02:24:07;92843.25;;;2.74;84.85
6204;BME280;3135;42.602;23.468;2023-04-28T02:26:33;92851.22;;;2.63;84.39
6204;BME280;3135;42.602;23.468;2023-04-28T02:28:58;92849.63;;;2.62;86.89
6204;BME280;3135;42.602;23.468;2023-04-28T02:31:24;92839.94;;;2.50;86.47
6204;BME280;3135;42.602;23.468;2023-04-28T02:33:49;92836.56;;;2.38;86.42
6204;BME280;3135;42.602;23.468;2023-04-28T02:36:15;92835.84;;;2.43;87.65
6204;BME280;3135;42.602;23.468;2023-04-28T02:38:40;92842.34;;;2.52;87.41
6204;BME280;3135;42.602;23.468;2023-04-28T02:41:06;92843.94;;;2.53;86.65
6204;BME280;3135;42.602;23.468;2023-04-28T02:43:34;92847.38;;;2.53;87.49
6204;BME280;3135;42.602;23.468;2023-04-28T02:46:01;92853.59;;;2.47;87.44
6204;BME280;3135;42.602;23.468;2023-04-28T02:48:27;92849.47;;;2.51;88.05
6204;BME280;3135;42.602;23.468;2023-04-28T02:50:53;92838.16;;;2.39;87.48
6204;BME280;3135;42.602;23.468;2023-04-28T02:53:19;92856.63;;;2.39;88.63
6204;BME280;3135;42.602;23.468;2023-04-28T02:55:45;92846.94;;;2.28;87.77
6204;BME280;3135;42.602;23.468;2023-04-28T02:58:10;92848.41;;;2.36;87.76
6204;BME280;3135;42.602;23.468;2023-04-28T03:00:36;92850.13;;;2.30;88.32
6204;BME280;3135;42.602;23.468;2023-04-28T03:03:01;92847.50;;;2.30;88.71
6204;BME280;3135;42.602;23.468;2023-04-28T03:05:27;92847.03;;;2.33;87.88
6204;BME280;3135;42.602;23.468;2023-04-28T03:07:52;92856.06;;;2.37;88.30
6204;BME280;3135;42.602;23.468;2023-04-28T03:10:18;92859.78;;;2.24;89.55
6204;BME280;3135;42.602;23.468;2023-04-28T03:12:44;92855.31;;;2.25;89.71
6204;BME280;3135;42.602;23.468;2023-04-28T03:15:09;92870.59;;;2.23;89.78
6204;BME280;3135;42.602;23.468;2023-04-28T03:17:35;92853.44;;;2.09;90.37
6204;BME280;3135;42.602;23.468;2023-04-28T03:20:03;92867.38;;;2.21;89.74
6204;BME280;3135;42.602;23.468;2023-04-28T03:22:30;92857.59;;;2.04;90.00
6204;BME280;3135;42.602;23.468;2023-04-28T03:24:55;92874.97;;;2.17;90.00
6204;BME280;3135;42.602;23.468;2023-04-28T03:27:21;92871.41;;;2.12;90.00
6204;BME280;3135;42.602;23.468;2023-04-28T03:29:46;92876.31;;;2.20;89.47
6204;BME280;3135;42.602;23.468;2023-04-28T03:32:12;92874.03;;;2.23;89.67
6204;BME280;3135;42.602;23.468;2023-04-28T03:34:37;92871.41;;;2.12;89.72
6204;BME280;3135;42.602;23.468;2023-04-28T03:37:03;92888.28;;;2.11;89.34
6204;BME280;3135;42.602;23.468;2023-04-28T03:39:29;92893.72;;;2.21;88.86
6204;BME280;3135;42.602;23.468;2023-04-28T03:41:54;92896.84;;;2.18;89.24
6204;BME280;3135;42.602;23.468;2023-04-28T03:44:20;92905.09;;;2.21;88.28
6204;BME280;3135;42.602;23.468;2023-04-28T03:46:47;92897.91;;;2.17;88.00
6204;BME280;3135;42.602;23.468;2023-04-28T03:49:13;92905.75;;;2.28;87.85
6204;BME280;3135;42.602;23.468;2023-04-28T03:51:38;92899.53;;;2.06;87.76
6204;BME280;3135;42.602;23.468;2023-04-28T03:54:04;92904.84;;;2.23;88.48
6204;BME280;3135;42.602;23.468;2023-04-28T03:56:29;92908.66;;;2.15;87.67
6204;BME280;3135;42.602;23.468;2023-04-28T03:58:55;92911.06;;;2.17;86.75
6204;BME280;3135;42.602;23.468;2023-04-28T04:01:20;92916.81;;;2.42;87.28
6204;BME280;3135;42.602;23.468;2023-04-28T04:03:46;92902.41;;;2.33;89.40
6204;BME280;3135;42.602;23.468;2023-04-28T04:06:12;92930.09;;;2.47;87.34
6204;BME280;3135;42.602;23.468;2023-04-28T04:08:37;92933.53;;;2.48;86.89
6204;BME280;3135;42.602;23.468;2023-04-28T04:11:03;92943.63;;;2.51;85.81
6204;BME280;3135;42.602;23.468;2023-04-28T04:13:29;92949.06;;;2.61;86.15
6204;BME280;3135;42.602;23.468;2023-04-28T04:15:54;92952.25;;;2.63;85.53
6204;BME280;3135;42.602;23.468;2023-04-28T04:18:20;92943.94;;;2.54;85.75
6204;BME280;3135;42.602;23.468;2023-04-28T04:20:45;92935.53;;;2.58;85.43
6204;BME280;3135;42.602;23.468;2023-04-28T04:23:10;92928.59;;;2.51;84.01
6204;BME280;3135;42.602;23.468;2023-04-28T04:25:36;92948.00;;;2.74;85.35
6204;BME280;3135;42.602;23.468;2023-04-28T04:28:01;92950.72;;;2.96;86.58
6204;BME280;3135;42.602;23.468;2023-04-28T04:30:27;92937.28;;;2.80;85.56
6204;BME280;3135;42.602;23.468;2023-04-28T04:32:53;92950.41;;;2.92;85.07
6204;BME280;3135;42.602;23.468;2023-04-28T04:35:18;92950.16;;;2.94;84.57
6204;BME280;3135;42.602;23.468;2023-04-28T04:37:44;92964.16;;;2.94;84.81
6204;BME280;3135;42.602;23.468;2023-04-28T04:40:09;92961.59;;;2.99;86.21
6204;BME280;3135;42.602;23.468;2023-04-28T04:42:35;92962.50;;;3.22;86.55
6204;BME280;3135;42.602;23.468;2023-04-28T04:45:00;92958.44;;;3.31;85.12
6204;BME280;3135;42.602;23.468;2023-04-28T04:47:26;92962.50;;;3.39;84.28
6204;BME280;3135;42.602;23.468;2023-04-28T04:49:52;92964.66;;;3.42;83.07
6204;BME280;3135;42.602;23.468;2023-04-28T04:52:17;92975.38;;;3.52;84.18
6204;BME280;3135;42.602;23.468;2023-04-28T04:54:44;92942.50;;;3.43;84.47
6204;BME280;3135;42.602;23.468;2023-04-28T04:57:10;92960.72;;;3.61;83.34
6204;BME280;3135;42.602;23.468;2023-04-28T04:59:36;92977.00;;;3.53;81.61
6204;BME280;3135;42.602;23.468;2023-04-28T05:02:01;92971.44;;;3.71;84.08
6204;BME280;3135;42.602;23.468;2023-04-28T05:04:27;92967.47;;;3.52;81.93
6204;BME280;3135;42.602;23.468;2023-04-28T05:06:52;92977.16;;;3.63;82.34
6204;BME280;3135;42.602;23.468;2023-04-28T05:09:17;92990.19;;;3.70;81.73
6204;BME280;3135;42.602;23.468;2023-04-28T05:11:44;92979.22;;;3.78;81.49
6204;BME280;3135;42.602;23.468;2023-04-28T05:14:09;92977.19;;;3.85;81.59
6204;BME280;3135;42.602;23.468;2023-04-28T05:16:36;92973.94;;;4.00;82.73
6204;BME280;3135;42.602;23.468;2023-04-28T05:19:02;92966.19;;;3.93;82.31
6204;BME280;3135;42.602;23.468;2023-04-28T05:21:27;92966.00;;;4.00;80.85
6204;BME280;3135;42.602;23.468;2023-04-28T05:23:53;92981.50;;;4.30;83.10
6204;BME280;3135;42.602;23.468;2023-04-28T05:26:18;92981.50;;;4.30;79.96
6204;BME280;3135;42.602;23.468;2023-04-28T05:28:44;92980.50;;;4.14;79.75
6204;BME280;3135;42.602;23.468;2023-04-28T05:31:09;92982.03;;;4.32;78.41
6204;BME280;3135;42.602;23.468;2023-04-28T05:33:35;92988.00;;;4.44;78.02
6204;BME280;3135;42.602;23.468;2023-04-28T05:36:00;92983.94;;;4.36;78.83
6204;BME280;3135;42.602;23.468;2023-04-28T05:38:25;92984.31;;;4.23;75.39
6204;BME280;3135;42.602;23.468;2023-04-28T05:40:51;92973.31;;;4.31;77.60
6204;BME280;3135;42.602;23.468;2023-04-28T05:43:16;92977.91;;;4.41;76.25
6204;BME280;3135;42.602;23.468;2023-04-28T05:45:42;92987.53;;;4.47;76.49
6204;BME280;3135;42.602;23.468;2023-04-28T05:48:07;92991.66;;;4.38;75.46
6204;BME280;3135;42.602;23.468;2023-04-28T05:50:33;92969.75;;;4.43;75.93
6204;BME280;3135;42.602;23.468;2023-04-28T05:52:58;92975.38;;;4.73;76.22
6204;BME280;3135;42.602;23.468;2023-04-28T05:55:24;92994.56;;;4.85;76.39
6204;BME280;3135;42.602;23.468;2023-04-28T05:57:52;92999.75;;;5.02;77.23
6204;BME280;3135;42.602;23.468;2023-04-28T06:00:18;92988.59;;;4.95;76.23
6204;BME280;3135;42.602;23.468;2023-04-28T06:02:44;92997.50;;;4.89;73.95
6204;BME280;3135;42.602;23.468;2023-04-28T06:05:09;93007.44;;;4.99;74.58
6204;BME280;3135;42.602;23.468;2023-04-28T06:07:35;92997.22;;;4.85;75.62
6204;BME280;3135;42.602;23.468;2023-04-28T06:10:00;92989.06;;;4.92;74.38
6204;BME280;3135;42.602;23.468;2023-04-28T06:12:26;92991.84;;;5.07;74.64
6204;BME280;3135;42.602;23.468;2023-04-28T06:14:51;92991.00;;;5.29;73.77
6204;BME280;3135;42.602;23.468;2023-04-28T06:17:19;92993.63;;;5.56;73.52
6204;BME280;3135;42.602;23.468;2023-04-28T06:19:45;93003.09;;;5.79;73.39
6204;BME280;3135;42.602;23.468;2023-04-28T06:22:10;93001.50;;;5.83;72.43
6204;BME280;3135;42.602;23.468;2023-04-28T06:24:36;92989.44;;;5.97;71.01
6204;BME280;3135;42.602;23.468;2023-04-28T06:27:01;92998.59;;;6.17;71.41
6204;BME280;3135;42.602;23.468;2023-04-28T06:29:27;92999.72;;;6.31;70.70
6204;BME280;3135;42.602;23.468;2023-04-28T06:31:52;93009.72;;;6.19;67.03
6204;BME280;3135;42.602;23.468;2023-04-28T06:34:23;93009.50;;;6.25;68.49
6204;BME280;3135;42.602;23.468;2023-04-28T06:36:51;93002.75;;;6.55;70.76
6204;BME280;3135;42.602;23.468;2023-04-28T06:39:16;93001.75;;;6.71;68.01
6204;BME280;3135;42.602;23.468;2023-04-28T06:41:42;92977.66;;;6.88;67.54
6204;BME280;3135;42.602;23.468;2023-04-28T06:44:07;93010.88;;;6.96;70.39
6204;BME280;3135;42.602;23.468;2023-04-28T06:46:32;92995.25;;;7.20;68.24
6204;BME280;3135;42.602;23.468;2023-04-28T06:48:58;92991.00;;;7.24;64.34
6204;BME280;3135;42.602;23.468;2023-04-28T06:51:23;93005.03;;;7.04;63.90
6204;BME280;3135;42.602;23.468;2023-04-28T06:53:49;93001.88;;;7.07;65.59
6204;BME280;3135;42.602;23.468;2023-04-28T06:56:17;92992.59;;;7.20;65.80
6204;BME280;3135;42.602;23.468;2023-04-28T06:58:42;93002.16;;;7.15;63.46
6204;BME280;3135;42.602;23.468;2023-04-28T07:01:08;92982.00;;;7.30;64.66
6204;BME280;3135;42.602;23.468;2023-04-28T07:03:33;92985.44;;;7.51;63.21
6204;BME280;3135;42.602;23.468;2023-04-28T07:05:59;92992.91;;;7.69;62.37
6204;BME280;3135;42.602;23.468;2023-04-28T07:08:24;93006.75;;;7.81;61.86
6204;BME280;3135;42.602;23.468;2023-04-28T07:10:50;92997.94;;;7.76;63.11
6204;BME280;3135;42.602;23.468;2023-04-28T07:13:15;92992.63;;;7.96;62.18
6204;BME280;3135;42.602;23.468;2023-04-28T07:15:41;93016.53;;;8.32;61.21
6204;BME280;3135;42.602;23.468;2023-04-28T07:18:06;93007.47;;;8.53;63.23
6204;BME280;3135;42.602;23.468;2023-04-28T07:20:31;92992.31;;;8.23;60.31
6204;BME280;3135;42.602;23.468;2023-04-28T07:22:57;93016.03;;;8.19;60.24
6204;BME280;3135;42.602;23.468;2023-04-28T07:25:23;93007.16;;;8.60;59.26
6204;BME280;3135;42.602;23.468;2023-04-28T07:27:48;92988.63;;;8.99;61.68
6204;BME280;3135;42.602;23.468;2023-04-28T07:30:14;93000.66;;;8.91;59.31
6204;BME280;3135;42.602;23.468;2023-04-28T07:32:40;92997.84;;;9.17;59.92
6204;BME280;3135;42.602;23.468;2023-04-28T07:35:06;92992.47;;;9.27;58.29
6204;BME280;3135;42.602;23.468;2023-04-28T07:37:31;93014.34;;;9.68;57.29
6204;BME280;3135;42.602;23.468;2023-04-28T07:39:57;93013.16;;;9.45;60.06
6204;BME280;3135;42.602;23.468;2023-04-28T07:42:22;93017.25;;;9.72;56.38
6204;BME280;3135;42.602;23.468;2023-04-28T07:44:48;93004.78;;;9.96;59.07
6204;BME280;3135;42.602;23.468;2023-04-28T07:47:13;93008.16;;;10.41;57.67
6204;BME280;3135;42.602;23.468;2023-04-28T07:49:39;92992.72;;;10.33;57.35
6204;BME280;3135;42.602;23.468;2023-04-28T07:52:04;93007.69;;;10.58;56.65
6204;BME280;3135;42.602;23.468;2023-04-28T07:54:30;92997.88;;;10.24;59.99
6204;BME280;3135;42.602;23.468;2023-04-28T07:56:55;93009.28;;;10.35;56.53
6204;BME280;3135;42.602;23.468;2023-04-28T07:59:22;93005.16;;;10.14;56.48
6204;BME280;3135;42.602;23.468;2023-04-28T08:01:47;92984.78;;;10.23;57.07
6204;BME280;3135;42.602;23.468;2023-04-28T08:04:13;93003.06;;;10.45;55.46
6204;BME280;3135;42.602;23.468;2023-04-28T08:06:39;93006.63;;;10.83;54.55
6204;BME280;3135;42.602;23.468;2023-04-28T08:09:04;92993.16;;;10.69;54.61
6204;BME280;3135;42.602;23.468;2023-04-28T08:11:30;92994.91;;;10.55;56.28
6204;BME280;3135;42.602;23.468;2023-04-28T08:13:56;92992.91;;;10.90;54.38
6204;BME280;3135;42.602;23.468;2023-04-28T08:16:26;93003.50;;;10.23;53.37
6204;BME280;3135;42.602;23.468;2023-04-28T08:18:52;93002.09;;;10.60;55.38
6204;BME280;3135;42.602;23.468;2023-04-28T08:21:17;92997.06;;;11.01;53.82
6204;BME280;3135;42.602;23.468;2023-04-28T08:23:42;92997.47;;;10.89;53.46
6204;BME280;3135;42.602;23.468;2023-04-28T08:26:08;93016.53;;;11.07;53.62
6204;BME280;3135;42.602;23.468;2023-04-28T08:28:33;93007.84;;;11.34;53.27
6204;BME280;3135;42.602;23.468;2023-04-28T08:30:59;93007.22;;;11.61;54.10
6204;BME280;3135;42.602;23.468;2023-04-28T08:33:25;93010.91;;;11.65;52.67
6204;BME280;3135;42.602;23.468;2023-04-28T08:35:50;92997.03;;;11.82;52.57
6204;BME280;3135;42.602;23.468;2023-04-28T08:38:16;92991.00;;;12.22;49.92
6204;BME280;3135;42.602;23.468;2023-04-28T08:40:42;92992.22;;;12.30;50.00
6204;BME280;3135;42.602;23.468;2023-04-28T08:43:08;92987.28;;;12.51;48.62
6204;BME280;3135;42.602;23.468;2023-04-28T08:45:42;92982.56;;;12.62;51.17
6204;BME280;3135;42.602;23.468;2023-04-28T08:48:19;92990.69;;;12.43;50.82
6204;BME280;3135;42.602;23.468;2023-04-28T08:50:50;92978.88;;;12.44;50.24
6204;BME280;3135;42.602;23.468;2023-04-28T08:53:25;92987.22;;;12.70;50.36
6204;BME280;3135;42.602;23.468;2023-04-28T08:55:56;92996.16;;;12.93;49.58
6204;BME280;3135;42.602;23.468;2023-04-28T08:58:23;92979.97;;;12.98;49.71
6204;BME280;3135;42.602;23.468;2023-04-28T09:00:50;92977.59;;;12.83;49.29
6204;BME280;3135;42.602;23.468;2023-04-28T09:03:16;92981.16;;;12.92;48.04
6204;BME280;3135;42.602;23.468;2023-04-28T09:05:41;92964.97;;;12.69;48.68
6204;BME280;3135;42.602;23.468;2023-04-28T09:08:07;92964.59;;;12.90;48.86
6204;BME280;3135;42.602;23.468;2023-04-28T09:10:32;92973.41;;;13.32;46.10
6204;BME280;3135;42.602;23.468;2023-04-28T09:12:58;92984.34;;;13.71;47.67
6204;BME280;3135;42.602;23.468;2023-04-28T09:15:37;92970.44;;;13.69;44.03
6204;BME280;3135;42.602;23.468;2023-04-28T09:18:06;92986.31;;;14.02;43.13
6204;BME280;3135;42.602;23.468;2023-04-28T09:20:34;92968.38;;;13.89;42.20
6204;BME280;3135;42.602;23.468;2023-04-28T09:23:17;92986.44;;;14.19;41.66
6204;BME280;3135;42.602;23.468;2023-04-28T09:28:26;92967.31;;;13.40;41.48
6204;BME280;3135;42.602;23.468;2023-04-28T09:30:52;92962.88;;;13.08;41.20
6204;BME280;3135;42.602;23.468;2023-04-28T09:33:18;92969.13;;;13.30;43.54
6204;BME280;3135;42.602;23.468;2023-04-28T09:35:43;92951.31;;;13.21;42.66
6204;BME280;3135;42.602;23.468;2023-04-28T09:38:13;92960.75;;;13.46;42.24
6204;BME280;3135;42.602;23.468;2023-04-28T09:40:57;92967.56;;;13.66;42.01
6204;BME280;3135;42.602;23.468;2023-04-28T09:45:52;92956.66;;;14.07;41.38
6204;BME280;3135;42.602;23.468;2023-04-28T09:48:32;92926.09;;;14.34;39.06
6204;BME280;3135;42.602;23.468;2023-04-28T09:51:05;92949.44;;;14.47;36.86
6204;BME280;3135;42.602;23.468;2023-04-28T09:53:32;92920.44;;;13.23;38.96
6204;BME280;3135;42.602;23.468;2023-04-28T09:55:59;92938.78;;;13.44;39.85
6204;BME280;3135;42.602;23.468;2023-04-28T09:58:26;92946.25;;;13.92;39.51
6204;BME280;3135;42.602;23.468;2023-04-28T10:00:54;92930.50;;;14.30;38.84
6204;BME280;3135;42.602;23.468;2023-04-28T10:03:22;92922.81;;;14.37;39.23
6204;BME280;3135;42.602;23.468;2023-04-28T10:05:48;92918.34;;;14.32;38.89
6204;BME280;3135;42.602;23.468;2023-04-28T10:08:15;92916.13;;;14.57;39.80
6204;BME280;3135;42.602;23.468;2023-04-28T10:10:42;92905.47;;;15.00;38.56
6204;BME280;3135;42.602;23.468;2023-04-28T10:13:08;92921.31;;;14.93;39.44
6204;BME280;3135;42.602;23.468;2023-04-28T10:15:35;92904.53;;;15.05;39.01
6204;BME280;3135;42.602;23.468;2023-04-28T10:18:02;92915.69;;;14.64;37.14
6204;BME280;3135;42.602;23.468;2023-04-28T10:20:29;92916.91;;;14.57;38.42
6204;BME280;3135;42.602;23.468;2023-04-28T10:25:47;92923.56;;;15.08;36.43
6204;BME280;3135;42.602;23.468;2023-04-28T10:28:14;92885.78;;;14.65;36.08
6204;BME280;3135;42.602;23.468;2023-04-28T10:30:40;92907.16;;;15.45;36.99
6204;BME280;3135;42.602;23.468;2023-04-28T10:35:44;92912.00;;;16.21;34.18
6204;BME280;3135;42.602;23.468;2023-04-28T10:38:12;92918.09;;;15.74;34.75
6204;BME280;3135;42.602;23.468;2023-04-28T10:40:38;92916.34;;;15.44;34.89
6204;BME280;3135;42.602;23.468;2023-04-28T10:43:06;92888.28;;;15.27;35.21
6204;BME280;3135;42.602;23.468;2023-04-28T10:46:02;92896.19;;;16.02;37.46
6204;BME280;3135;42.602;23.468;2023-04-28T10:56:24;92877.78;;;16.04;33.55
6204;BME280;3135;42.602;23.468;2023-04-28T10:58:57;92890.13;;;16.22;32.20
6204;BME280;3135;42.602;23.468;2023-04-28T11:01:29;92894.63;;;16.01;31.98
6204;BME280;3135;42.602;23.468;2023-04-28T11:03:57;92872.78;;;16.41;30.81
6204;BME280;3135;42.602;23.468;2023-04-28T11:06:43;92890.69;;;16.45;31.67
6204;BME280;3135;42.602;23.468;2023-04-28T11:19:37;92873.09;;;15.57;31.84
6204;BME280;3135;42.602;23.468;2023-04-28T11:22:12;92849.94;;;15.82;31.56
6204;BME280;3135;42.602;23.468;2023-04-28T11:24:38;92864.47;;;15.99;34.32
6204;BME280;3135;42.602;23.468;2023-04-28T11:27:04;92861.34;;;15.79;31.87
6204;BME280;3135;42.602;23.468;2023-04-28T11:29:36;92870.56;;;16.43;31.85
6204;BME280;3135;42.602;23.468;2023-04-28T11:32:03;92864.31;;;16.51;31.19
6204;BME280;3135;42.602;23.468;2023-04-28T11:34:28;92866.09;;;16.47;32.01
6204;BME280;3135;42.602;23.468;2023-04-28T11:36:54;92853.59;;;15.87;32.47
6204;BME280;3135;42.602;23.468;2023-04-28T11:41:55;92845.22;;;16.26;33.27
6204;BME280;3135;42.602;23.468;2023-04-28T11:44:23;92842.03;;;16.33;31.17
6204;BME280;3135;42.602;23.468;2023-04-28T11:46:50;92839.75;;;16.82;31.94
6204;BME280;3135;42.602;23.468;2023-04-28T11:49:21;92843.50;;;17.19;30.32
6204;BME280;3135;42.602;23.468;2023-04-28T11:51:49;92828.78;;;17.50;32.95
6204;BME280;3135;42.602;23.468;2023-04-28T11:54:26;92836.50;;;17.18;32.52
6204;BME280;3135;42.602;23.468;2023-04-28T11:56:52;92849.13;;;16.84;31.29
6204;BME280;3135;42.602;23.468;2023-04-28T11:59:26;92832.06;;;16.93;29.03
6204;BME280;3135;42.602;23.468;2023-04-28T12:01:53;92848.19;;;16.80;29.09
6204;BME280;3135;42.602;23.468;2023-04-28T12:04:27;92838.53;;;16.32;30.82
6204;BME280;3135;42.602;23.468;2023-04-28T12:07:05;92843.34;;;16.95;30.01
6204;BME280;3135;42.602;23.468;2023-04-28T12:09:33;92833.47;;;16.99;29.24
6204;BME280;3135;42.602;23.468;2023-04-28T12:12:03;92813.16;;;16.93;29.75
6204;BME280;3135;42.602;23.468;2023-04-28T12:14:30;92829.66;;;17.00;29.36
6204;BME280;3135;42.602;23.468;2023-04-28T12:16:59;92816.06;;;16.88;28.82
6204;BME280;3135;42.602;23.468;2023-04-28T12:19:25;92822.22;;;16.58;29.50
6204;BME280;3135;42.602;23.468;2023-04-28T12:22:00;92820.91;;;16.73;28.37
6204;BME280;3135;42.602;23.468;2023-04-28T12:24:26;92802.75;;;16.53;28.78
6204;BME280;3135;42.602;23.468;2023-04-28T12:26:52;92804.00;;;16.55;28.73
6204;BME280;3135;42.602;23.468;2023-04-28T12:29:37;92806.69;;;16.55;28.07
6204;BME280;3135;42.602;23.468;2023-04-28T12:32:07;92803.16;;;16.64;29.55
6204;BME280;3135;42.602;23.468;2023-04-28T12:34:33;92806.03;;;15.91;29.96
6204;BME280;3135;42.602;23.468;2023-04-28T12:37:00;92797.13;;;16.67;28.75
6204;BME280;3135;42.602;23.468;2023-04-28T12:39:26;92792.44;;;16.84;30.38
6204;BME280;3135;42.602;23.468;2023-04-28T12:41:51;92799.75;;;17.05;31.42
6204;BME280;3135;42.602;23.468;2023-04-28T12:44:19;92784.66;;;17.46;31.69
6204;BME280;3135;42.602;23.468;2023-04-28T12:46:45;92775.09;;;17.81;31.70
6204;BME280;3135;42.602;23.468;2023-04-28T12:49:10;92786.00;;;18.18;28.18
6204;BME280;3135;42.602;23.468;2023-04-28T12:51:35;92785.28;;;17.97;32.68
6204;BME280;3135;42.602;23.468;2023-04-28T12:54:03;92784.63;;;17.13;30.53
6204;BME280;3135;42.602;23.468;2023-04-28T12:56:29;92792.38;;;17.14;30.46
6204;BME280;3135;42.602;23.468;2023-04-28T12:58:54;92775.78;;;16.82;29.98
6204;BME280;3135;42.602;23.468;2023-04-28T13:01:20;92764.63;;;17.26;29.15
6204;BME280;3135;42.602;23.468;2023-04-28T13:03:45;92765.31;;;17.56;29.00
6204;BME280;3135;42.602;23.468;2023-04-28T13:06:12;92785.53;;;17.37;30.08
6204;BME280;3135;42.602;23.468;2023-04-28T13:08:38;92758.34;;;17.01;31.27
6204;BME280;3135;42.602;23.468;2023-04-28T13:11:04;92767.28;;;16.93;31.86
6204;BME280;3135;42.602;23.468;2023-04-28T13:13:30;92777.38;;;17.04;32.76
6204;BME280;3135;42.602;23.468;2023-04-28T13:15:55;92783.16;;;17.15;30.47
6204;BME280;3135;42.602;23.468;2023-04-28T13:18:22;92775.19;;;16.98;30.15
6204;BME280;3135;42.602;23.468;2023-04-28T13:20:48;92773.47;;;16.72;29.96
6204;BME280;3135;42.602;23.468;2023-04-28T13:23:13;92757.59;;;17.33;30.09
6204;BME280;3135;42.602;23.468;2023-04-28T13:25:38;92763.50;;;17.48;29.64
6204;BME280;3135;42.602;23.468;2023-04-28T13:28:04;92745.63;;;17.22;30.06
6204;BME280;3135;42.602;23.468;2023-04-28T13:30:30;92761.34;;;16.49;30.88
6204;BME280;3135;42.602;23.468;2023-04-28T13:32:55;92773.00;;;16.91;31.08
6204;BME280;3135;42.602;23.468;2023-04-28T13:35:21;92742.94;;;16.80;32.13
6204;BME280;3135;42.602;23.468;2023-04-28T13:37:48;92759.97;;;16.93;33.12
6204;BME280;3135;42.602;23.468;2023-04-28T13:40:13;92772.22;;;17.11;31.26
6204;BME280;3135;42.602;23.468;2023-04-28T13:42:39;92757.09;;;16.48;31.72
6204;BME280;3135;42.602;23.468;2023-04-28T13:45:04;92753.44;;;16.14;31.89